Time;durP1;ratioP1;P1;durP2;ratioP2;P2;SDS_P1;SDS_P2;PMS_P1;PMS_P2;Temp;Humidity;BMP_temperature;BMP_pressure;BME280_temperature;BME280_humidity;BME280_pressure;Samples;Min_cycle;Max_cycle;Signal;HPM_P1;HPM_P2
2022/12/15 00:39:57;;;;;;;15.38;7.82;;;-2.80;99.90;;;;;;5092750;28;20055;-66
2022/12/15 00:42:23;;;;;;;14.20;7.93;;;-2.60;99.90;;;;;;5094555;28;20048;-66
2022/12/15 00:44:49;;;;;;;14.88;7.43;;;-2.70;99.90;;;;;;5076872;28;20110;-66
2022/12/15 00:47:15;;;;;;;14.15;7.68;;;-2.60;99.90;;;;;;5093881;28;20079;-66
2022/12/15 01:22:36;;;;;;;11.20;6.60;;;-2.30;99.90;;;;;;5135400;27;19919;-66
2022/12/15 01:25:02;;;;;;;12.80;6.63;;;-2.00;99.90;;;;;;5104363;27;20475;-66
2022/12/15 01:27:28;;;;;;;10.38;6.10;;;-2.30;99.90;;;;;;5121135;27;20039;-66
2022/12/15 01:29:54;;;;;;;13.50;6.60;;;-1.60;99.90;;;;;;5138543;27;20363;-66
2022/12/15 01:32:20;;;;;;;13.35;6.50;;;-2.30;99.90;;;;;;5138538;27;20504;-66
2022/12/15 01:34:45;;;;;;;12.35;6.93;;;-2.30;99.90;;;;;;5138450;27;20364;-66
2022/12/15 01:37:11;;;;;;;12.35;6.75;;;-2.30;99.90;;;;;;5120077;27;20059;-66
2022/12/15 01:42:21;;;;;;;13.90;6.53;;;-2.30;99.90;;;;;;5122770;27;20057;-67
2022/12/15 01:44:50;;;;;;;13.20;6.82;;;-1.70;99.90;;;;;;5120498;27;20071;-66
2022/12/15 01:47:16;;;;;;;14.50;7.63;;;-2.30;99.90;;;;;;5120335;27;20471;-66
2022/12/15 01:49:46;;;;;;;11.30;6.80;;;-2.40;99.90;;;;;;5138456;27;20103;-66
2022/12/15 01:52:14;;;;;;;13.65;6.97;;;-2.20;99.90;;;;;;5138114;27;20051;-66
2022/12/15 01:54:51;;;;;;;10.68;7.30;;;-2.40;99.90;;;;;;5154580;27;20047;-66
2022/12/15 01:57:24;;;;;;;14.50;7.65;;;-2.20;99.90;;;;;;5138032;27;20475;-66
2022/12/15 01:59:54;;;;;;;13.07;7.07;;;-2.30;99.90;;;;;;5138021;27;20054;-66
2022/12/15 02:02:25;;;;;;;14.18;7.38;;;-2.30;99.90;;;;;;5138027;27;20054;-66
2022/12/15 02:04:52;;;;;;;14.05;7.68;;;-2.30;99.90;;;;;;5119483;27;20095;-66
2022/12/15 02:07:18;;;;;;;13.85;6.80;;;-2.50;99.90;;;;;;5138030;27;20123;-66
2022/12/15 02:09:47;;;;;;;13.02;7.43;;;-0.80;99.90;;;;;;5119043;27;20411;-67
2022/12/15 02:12:39;;;;;;;10.70;6.30;;;-2.40;99.90;;;;;;5137657;27;20047;-66
2022/12/15 02:15:05;;;;;;;16.30;8.38;;;-2.30;99.90;;;;;;5138182;27;20066;-66
2022/12/15 02:17:45;;;;;;;10.98;6.13;;;-1.60;99.90;;;;;;5137567;27;20043;-66
2022/12/15 02:20:26;;;;;;;14.05;7.43;;;-2.50;99.90;;;;;;5138441;27;20046;-66
2022/12/15 02:23:10;;;;;;;10.25;6.03;;;-2.20;99.90;;;;;;5138305;27;20043;-66
2022/12/15 02:26:13;;;;;;;13.82;7.47;;;-2.00;99.90;;;;;;5137672;27;20112;-66
2022/12/15 02:28:45;;;;;;;12.30;7.03;;;-2.20;99.90;;;;;;5137417;27;20406;-66
2022/12/15 02:31:49;;;;;;;13.38;6.57;;;-2.50;99.90;;;;;;5137290;27;20379;-66
2022/12/15 02:34:28;;;;;;;13.07;7.00;;;-2.30;99.90;;;;;;5122838;27;20047;-67
2022/12/15 02:37:02;;;;;;;16.70;7.35;;;-2.40;99.90;;;;;;5137866;27;20395;-66
2022/12/15 02:39:28;;;;;;;9.20;5.55;;;-2.20;99.90;;;;;;5137292;27;20047;-66
2022/12/15 02:41:54;;;;;;;11.30;6.43;;;-2.30;99.90;;;;;;5137638;27;20122;-66
2022/12/15 02:44:29;;;;;;;13.35;6.63;;;-2.30;99.90;;;;;;5137005;27;20130;-66
2022/12/15 02:46:58;;;;;;;11.45;6.93;;;-2.40;99.90;;;;;;5136992;27;20411;-66
2022/12/15 02:49:42;;;;;;;13.80;7.13;;;-2.20;99.90;;;;;;5137228;27;20058;-66
2022/12/15 02:52:13;;;;;;;;;;;-2.50;99.90;;;;;;5137384;27;20083;-66
2022/12/15 02:54:44;;;;;;;14.60;7.80;;;-2.50;99.90;;;;;;5136997;27;19975;-66
2022/12/15 02:57:18;;;;;;;14.27;6.78;;;-2.50;99.90;;;;;;5137279;27;20535;-66
2022/12/15 02:59:59;;;;;;;10.52;6.35;;;-2.50;99.90;;;;;;5137471;27;20103;-66
2022/12/15 03:02:29;;;;;;;9.57;5.90;;;-2.30;99.90;;;;;;5118687;27;20047;-66
2022/12/15 03:04:56;;;;;;;13.68;7.15;;;-2.00;99.90;;;;;;5136635;27;20074;-66
2022/12/15 03:07:26;;;;;;;11.25;6.60;;;-2.50;99.90;;;;;;5136602;27;20067;-66
2022/12/15 03:09:58;;;;;;;12.63;6.70;;;-2.50;99.90;;;;;;5136381;27;20058;-66
2022/12/15 03:12:24;;;;;;;12.05;7.00;;;-2.60;99.90;;;;;;5137148;27;20054;-67
2022/12/15 03:14:50;;;;;;;13.65;6.97;;;-1.80;99.90;;;;;;5136828;27;20083;-66
2022/12/15 03:17:15;;;;;;;8.57;5.32;;;-1.70;99.90;;;;;;5101398;27;20505;-66
2022/12/15 03:19:41;;;;;;;11.25;6.00;;;-1.70;99.90;;;;;;5136422;27;20039;-66
2022/12/15 03:22:07;;;;;;;9.45;5.65;;;-2.60;99.90;;;;;;5118779;27;20071;-66
2022/12/15 03:24:33;;;;;;;8.38;4.97;;;-2.40;99.90;;;;;;5118007;27;20050;-66
2022/12/15 03:26:58;;;;;;;10.23;5.70;;;-2.70;99.90;;;;;;5136235;27;20047;-67
2022/12/15 03:29:24;;;;;;;11.35;5.85;;;-2.30;99.90;;;;;;5136235;27;20047;-67
2022/12/15 03:31:50;;;;;;;10.68;5.30;;;-2.50;99.90;;;;;;5136622;27;20035;-67
2022/12/15 03:34:16;;;;;;;8.90;5.00;;;-2.40;99.90;;;;;;5136128;27;20360;-67
2022/12/15 03:36:41;;;;;;;8.95;5.30;;;-2.40;99.90;;;;;;5117927;27;20130;-67
2022/12/15 03:39:07;;;;;;;9.95;5.85;;;-1.00;99.90;;;;;;5135999;27;20083;-67
2022/12/15 03:41:33;;;;;;;8.07;5.15;;;-2.50;99.90;;;;;;5135976;27;20126;-67
2022/12/15 03:44:00;;;;;;;8.40;5.30;;;-2.40;99.90;;;;;;5118358;27;20047;-67
2022/12/15 03:46:25;;;;;;;8.48;5.05;;;-2.40;99.90;;;;;;5135327;27;20051;-66
2022/12/15 03:48:52;;;;;;;8.35;4.88;;;-2.50;99.90;;;;;;5136679;27;20050;-66
2022/12/15 03:51:18;;;;;;;10.02;5.03;;;-2.30;99.90;;;;;;5136273;27;20078;-66
2022/12/15 03:53:46;;;;;;;10.07;4.90;;;-2.40;99.90;;;;;;5135755;27;20046;-66
2022/12/15 03:56:12;;;;;;;7.82;4.60;;;-2.50;99.90;;;;;;5117473;27;20471;-66
2022/12/15 03:58:38;;;;;;;9.45;5.43;;;-1.80;99.90;;;;;;5117354;27;20054;-66
2022/12/15 04:01:31;;;;;;;10.52;5.22;;;-2.30;99.90;;;;;;5135945;27;20043;-66
2022/12/15 04:03:58;;;;;;;9.03;4.77;;;-2.40;99.90;;;;;;5136230;27;20043;-67
2022/12/15 04:06:24;;;;;;;10.02;5.30;;;-2.10;99.90;;;;;;5135513;27;20043;-67
2022/12/15 04:08:50;;;;;;;8.30;5.25;;;-2.40;99.90;;;;;;5117563;27;20054;-68
2022/12/15 04:11:16;;;;;;;10.55;5.18;;;-2.50;99.90;;;;;;5116782;27;20070;-67
2022/12/15 04:13:42;;;;;;;9.75;5.53;;;-2.30;99.90;;;;;;5134982;27;20046;-66
2022/12/15 04:16:08;;;;;;;9.32;5.45;;;-2.60;99.90;;;;;;5135359;27;20055;-66
2022/12/15 04:18:33;;;;;;;8.15;5.43;;;-2.60;99.90;;;;;;5136108;27;20051;-67
2022/12/15 04:20:59;;;;;;;9.75;5.63;;;-2.50;99.90;;;;;;5135282;27;20047;-66
2022/12/15 04:23:25;;;;;;;9.38;5.60;;;-2.70;99.90;;;;;;5135169;27;20085;-67
2022/12/15 05:32:05;;;;;;;14.82;6.22;;;-1.70;99.90;;;;;;5134213;28;20493;-66
2022/12/15 05:34:33;;;;;;;11.73;7.35;;;-2.20;99.90;;;;;;5134267;28;20399;-66
2022/12/15 05:37:00;;;;;;;12.68;6.90;;;-2.40;99.90;;;;;;5134512;28;20050;-66
2022/12/15 05:39:26;;;;;;;11.40;6.55;;;-2.30;99.90;;;;;;5134254;28;20047;-66
2022/12/15 05:41:54;;;;;;;12.20;6.28;;;-2.30;99.90;;;;;;5135055;28;20046;-66
2022/12/15 05:44:19;;;;;;;11.18;6.15;;;-2.10;99.90;;;;;;5134759;28;20046;-66
2022/12/15 05:46:46;;;;;;;12.07;5.95;;;-2.30;99.90;;;;;;5134422;28;20047;-66
2022/12/15 05:49:14;;;;;;;10.20;5.40;;;-2.30;99.90;;;;;;5133777;28;20479;-66
2022/12/15 05:51:42;;;;;;;11.43;6.13;;;-2.00;99.90;;;;;;5133702;28;20494;-66
2022/12/15 05:54:09;;;;;;;10.43;5.35;;;-1.90;99.90;;;;;;5134103;28;20086;-66
2022/12/15 05:56:35;;;;;;;13.18;4.90;;;-2.20;99.90;;;;;;5115988;28;20426;-66
2022/12/15 05:59:02;;;;;;;9.68;4.80;;;-1.60;99.90;;;;;;5133966;28;20090;-66
2022/12/15 06:01:30;;;;;;;8.38;4.75;;;-1.90;99.90;;;;;;5134051;28;20047;-66
2022/12/15 06:03:56;;;;;;;10.88;5.38;;;-2.20;99.90;;;;;;5133565;28;20552;-66
2022/12/15 06:06:22;;;;;;;9.23;5.40;;;-1.90;99.90;;;;;;5133945;28;20193;-66
2022/12/15 06:08:48;;;;;;;9.20;5.85;;;-2.00;99.90;;;;;;5135211;27;20075;-66
2022/12/15 06:11:16;;;;;;;8.45;4.78;;;-2.00;99.90;;;;;;5138302;27;20421;-66
2022/12/15 06:13:42;;;;;;;8.75;5.38;;;-2.00;99.90;;;;;;5119384;27;20039;-67
2022/12/15 06:16:13;;;;;;;11.05;5.28;;;-2.10;99.90;;;;;;5137636;27;20095;-66
2022/12/15 06:18:43;;;;;;;8.07;5.15;;;-2.00;99.90;;;;;;5137649;27;20051;-66
2022/12/15 06:21:14;;;;;;;9.35;5.03;;;-2.00;99.90;;;;;;5102494;27;20047;-66
2022/12/15 06:23:41;;;;;;;9.38;5.25;;;-2.00;99.90;;;;;;5137574;27;20494;-66
2022/12/15 06:26:18;;;;;;;8.77;4.50;;;-1.30;99.90;;;;;;5137373;27;20107;-66
2022/12/15 06:28:44;;;;;;;10.02;4.43;;;-2.10;99.90;;;;;;5137744;27;20375;-66
2022/12/15 06:31:11;;;;;;;9.25;4.32;;;-2.00;99.90;;;;;;5119502;27;20043;-66
2022/12/15 06:33:38;;;;;;;10.15;5.85;;;-1.90;99.90;;;;;;5137387;27;20043;-66
2022/12/15 06:36:14;;;;;;;10.88;4.57;;;-1.60;99.90;;;;;;5102956;27;20074;-66
2022/12/15 06:38:44;;;;;;;7.57;4.07;;;-1.10;99.90;;;;;;5137612;27;20559;-66
2022/12/15 06:41:15;;;;;;;7.93;4.50;;;-2.00;99.90;;;;;;5137774;27;20047;-66
2022/12/15 06:43:41;;;;;;;7.25;4.38;;;-2.00;99.90;;;;;;5102307;27;20043;-66
2022/12/15 06:46:08;;;;;;;7.40;4.75;;;-1.90;99.90;;;;;;5137170;27;20035;-66
2022/12/15 06:48:34;;;;;;;9.18;4.53;;;-1.80;99.90;;;;;;5119021;27;20387;-66
2022/12/15 06:51:05;;;;;;;7.40;3.75;;;-1.70;99.90;;;;;;5136906;27;20115;-66
2022/12/15 06:53:34;;;;;;;7.70;4.20;;;-2.00;99.90;;;;;;5136694;27;20043;-66
2022/12/15 06:56:01;;;;;;;6.20;4.13;;;-1.80;99.90;;;;;;5136853;27;20054;-66
2022/12/15 06:58:28;;;;;;;9.23;4.88;;;-2.00;99.90;;;;;;5137170;27;20043;-66
2022/12/15 07:00:54;;;;;;;8.05;5.13;;;-1.70;99.90;;;;;;5136970;27;20125;-66
2022/12/15 07:03:20;;;;;;;7.45;4.55;;;-1.80;99.90;;;;;;5136887;27;20075;-66
2022/12/15 07:05:46;;;;;;;8.40;4.97;;;-1.60;99.90;;;;;;5137564;27;20047;-66
2022/12/15 07:08:13;;;;;;;7.20;4.45;;;-1.70;99.90;;;;;;5137274;27;20055;-66
2022/12/15 07:10:40;;;;;;;6.70;4.47;;;-1.40;99.90;;;;;;5136357;27;20439;-66
2022/12/15 07:13:10;;;;;;;10.45;4.10;;;-1.90;99.90;;;;;;5136647;27;20051;-66
2022/12/15 07:15:36;;;;;;;8.27;4.18;;;-1.80;99.90;;;;;;5118815;27;20046;-66
2022/12/15 07:18:02;;;;;;;7.55;4.03;;;-1.90;99.90;;;;;;5136538;27;20049;-66
2022/12/15 07:20:27;;;;;;;6.55;4.30;;;-1.60;99.90;;;;;;5117183;27;20047;-66
2022/12/15 07:22:53;;;;;;;4.75;3.45;;;-2.00;99.90;;;;;;5137185;27;20489;-66
2022/12/15 07:25:19;;;;;;;4.93;2.92;;;-2.00;99.90;;;;;;5136379;27;20138;-66
2022/12/15 07:27:46;;;;;;;7.55;3.88;;;-1.80;99.90;;;;;;5136256;27;20129;-66
2022/12/15 07:30:13;;;;;;;7.97;4.00;;;-1.40;99.90;;;;;;5136781;27;20046;-66
2022/12/15 07:32:40;;;;;;;7.85;3.35;;;-2.00;99.90;;;;;;5136831;27;20107;-66
2022/12/15 07:35:07;;;;;;;8.80;4.43;;;-2.00;99.90;;;;;;5136183;27;20504;-66
2022/12/15 07:37:33;;;;;;;8.50;4.30;;;-2.00;99.90;;;;;;5118755;27;20047;-66
2022/12/15 07:39:59;;;;;;;6.43;3.90;;;-1.80;99.90;;;;;;5136137;27;20051;-66
2022/12/15 07:42:28;;;;;;;9.13;3.75;;;-1.70;99.90;;;;;;5136073;27;20077;-66
2022/12/15 07:44:54;;;;;;;10.02;5.20;;;-1.60;99.90;;;;;;5135986;27;20126;-66
2022/12/15 07:47:19;;;;;;;6.85;4.88;;;-1.80;99.90;;;;;;5117599;27;20086;-66
2022/12/15 07:49:45;;;;;;;7.78;4.43;;;-1.00;99.90;;;;;;5135942;27;20054;-66
2022/12/15 07:52:12;;;;;;;8.02;4.47;;;-1.90;99.90;;;;;;5117992;27;20075;-66
2022/12/15 07:54:38;;;;;;;7.70;4.57;;;-1.80;99.90;;;;;;5136049;27;20391;-66
2022/12/15 07:57:06;;;;;;;8.65;4.22;;;-1.90;99.90;;;;;;5117494;27;20133;-66
2022/12/15 07:59:33;;;;;;;8.90;5.60;;;-1.90;99.90;;;;;;5135620;27;20092;-66
2022/12/15 08:01:59;;;;;;;7.15;3.78;;;-1.80;99.90;;;;;;5117632;27;20043;-66
2022/12/15 08:04:25;;;;;;;5.60;3.97;;;-1.40;99.90;;;;;;5117749;27;20047;-66
2022/12/15 08:06:53;;;;;;;7.63;4.25;;;-1.90;99.90;;;;;;5117353;27;20397;-66
2022/12/15 08:09:19;;;;;;;14.40;6.05;;;-1.40;99.90;;;;;;5116926;27;20215;-66
2022/12/15 08:11:45;;;;;;;11.45;5.38;;;-1.70;99.90;;;;;;5117745;27;20130;-66
2022/12/15 08:14:11;;;;;;;8.40;4.70;;;-1.50;99.90;;;;;;5135944;27;20530;-66
2022/12/15 08:16:36;;;;;;;10.93;5.18;;;-1.80;99.90;;;;;;5135791;27;20405;-66
2022/12/15 08:19:04;;;;;;;11.25;5.70;;;-1.70;99.90;;;;;;5117292;27;20493;-66
2022/12/15 08:21:31;;;;;;;10.75;5.38;;;-1.70;99.90;;;;;;5135839;27;20054;-66
2022/12/15 08:23:59;;;;;;;10.25;5.85;;;-1.70;99.90;;;;;;5100498;27;20398;-66
2022/12/15 08:26:25;;;;;;;10.98;5.53;;;-1.80;99.90;;;;;;5116774;27;20387;-66
2022/12/15 08:28:51;;;;;;;9.15;4.88;;;-1.50;99.90;;;;;;5135214;27;20047;-66
2022/12/15 08:31:22;;;;;;;7.80;4.72;;;-1.60;99.90;;;;;;5134574;27;20036;-66
2022/12/15 08:33:48;;;;;;;8.60;4.93;;;-1.80;99.90;;;;;;5135240;27;20051;-66
2022/12/15 08:36:16;;;;;;;8.55;4.68;;;-1.80;99.90;;;;;;5117540;27;20437;-66
2022/12/15 08:38:43;;;;;;;8.75;5.20;;;-1.70;99.90;;;;;;5135674;27;20047;-66
2022/12/15 08:41:21;;;;;;;7.30;4.78;;;-1.50;99.90;;;;;;5135072;27;20095;-66
2022/12/15 08:43:48;;;;;;;8.57;5.13;;;-1.70;99.90;;;;;;5135113;27;20121;-66
2022/12/15 08:46:25;;;;;;;7.10;4.25;;;-1.60;99.90;;;;;;5134940;27;20082;-66
2022/12/15 08:48:54;;;;;;;7.35;4.32;;;-1.60;99.90;;;;;;5116853;28;20050;-66
2022/12/15 08:51:22;;;;;;;6.38;4.47;;;-1.40;99.90;;;;;;5117325;27;20047;-65
2022/12/15 08:53:48;;;;;;;8.00;4.10;;;-0.90;99.90;;;;;;5134764;27;20394;-66
2022/12/15 08:56:17;;;;;;;8.18;4.15;;;-1.60;99.90;;;;;;5117331;27;20050;-66
2022/12/15 08:58:44;;;;;;;7.88;4.03;;;-1.40;99.90;;;;;;5116611;27;20364;-65
2022/12/15 09:01:13;;;;;;;8.90;3.95;;;-1.30;99.90;;;;;;5134633;27;20042;-66
2022/12/15 09:03:39;;;;;;;7.50;3.92;;;-1.50;99.90;;;;;;5134754;27;20047;-65
2022/12/15 09:06:09;;;;;;;8.35;3.92;;;-1.50;99.90;;;;;;5134621;27;20094;-65
2022/12/15 09:08:34;;;;;;;9.40;5.15;;;-0.80;99.90;;;;;;5134947;27;20043;-66
2022/12/15 09:11:02;;;;;;;8.85;4.28;;;-1.50;99.90;;;;;;5116275;27;20453;-65
2022/12/15 09:13:28;;;;;;;11.25;5.30;;;-1.30;99.90;;;;;;5134333;27;20521;-65
2022/12/15 09:16:11;;;;;;;7.45;4.60;;;-1.30;99.90;;;;;;5134297;28;20047;-65
2022/12/15 09:18:40;;;;;;;10.63;5.30;;;-1.20;99.90;;;;;;5134647;28;20039;-65
2022/12/15 09:21:07;;;;;;;10.43;5.35;;;-1.20;99.90;;;;;;5116795;28;20090;-65
2022/12/15 09:23:34;;;;;;;10.73;5.43;;;-0.70;99.90;;;;;;5099538;28;20078;-65
2022/12/15 09:26:04;;;;;;;9.50;6.13;;;-1.30;99.90;;;;;;5134424;28;20051;-65
2022/12/15 09:28:31;;;;;;;10.82;5.85;;;-1.00;99.90;;;;;;5134854;28;20043;-65
2022/12/15 09:31:11;;;;;;;8.70;5.38;;;-0.50;99.90;;;;;;5116503;28;20122;-64
2022/12/15 09:33:38;;;;;;;10.48;5.18;;;-1.10;99.90;;;;;;5134512;28;20042;-64
2022/12/15 09:36:05;;;;;;;7.63;6.22;;;-1.10;99.90;;;;;;5134705;28;20039;-65
2022/12/15 09:38:37;;;;;;;9.75;4.70;;;-0.90;99.90;;;;;;5135198;28;20062;-66
2022/12/15 09:41:27;;;;;;;9.80;4.43;;;-0.90;99.90;;;;;;5134395;28;20118;-65
2022/12/15 09:44:16;;;;;;;14.15;6.50;;;-1.20;99.90;;;;;;5126607;27;20051;-64
2022/12/15 09:47:05;;;;;;;8.73;4.40;;;0.00;99.90;;;;;;5138041;27;20095;-64
2022/12/15 09:49:46;;;;;;;9.13;4.22;;;-1.00;99.90;;;;;;5120910;27;20450;-64
2022/12/15 09:52:18;;;;;;;7.75;4.50;;;-1.50;99.90;;;;;;5138322;27;20039;-64
2022/12/15 09:54:45;;;;;;;12.45;5.40;;;-0.50;99.90;;;;;;5121017;27;20039;-64
2022/12/15 09:57:32;;;;;;;7.38;5.10;;;-0.10;99.90;;;;;;5138183;27;20058;-64
2022/12/15 10:00:06;;;;;;;8.98;4.90;;;-0.80;99.90;;;;;;5138316;27;20039;-63
2022/12/15 10:02:31;;;;;;;7.95;4.88;;;-0.80;99.90;;;;;;5138975;27;20078;-64
2022/12/15 10:05:11;;;;;;;8.82;5.57;;;0.10;99.90;;;;;;5120006;27;20513;-64
2022/12/15 10:07:47;;;;;;;10.75;4.85;;;-0.60;99.90;;;;;;5138727;27;20122;-64
2022/12/15 10:10:24;;;;;;;8.65;4.70;;;-0.60;99.90;;;;;;5138525;27;20100;-64
2022/12/15 10:12:53;;;;;;;7.15;4.10;;;-0.70;99.90;;;;;;5137945;27;20097;-64
2022/12/15 10:15:25;;;;;;;7.32;4.55;;;-0.40;99.90;;;;;;5137921;27;20046;-66
2022/12/15 10:18:01;;;;;;;10.90;5.70;;;-0.60;99.90;;;;;;5138559;27;20039;-66
2022/12/15 10:20:29;;;;;;;10.57;4.50;;;-0.40;99.90;;;;;;5138429;27;20095;-66
2022/12/15 10:23:10;;;;;;;8.63;4.60;;;0.20;99.90;;;;;;5138346;27;20043;-66
2022/12/15 10:25:36;;;;;;;10.68;6.07;;;-0.20;99.90;;;;;;5119901;27;20108;-66
2022/12/15 10:28:12;;;;;;;8.63;4.60;;;-0.10;99.90;;;;;;5102286;27;20047;-66
2022/12/15 10:31:27;;;;;;;10.30;4.78;;;-0.30;99.90;;;;;;5137695;27;20046;-66
2022/12/15 10:34:00;;;;;;;12.15;4.70;;;-0.10;99.90;;;;;;5132476;27;20066;-66
2022/12/15 10:36:25;;;;;;;9.10;4.70;;;0.60;99.90;;;;;;5137580;27;20051;-66
2022/12/15 10:38:51;;;;;;;10.25;6.10;;;-0.10;99.90;;;;;;5102050;27;20051;-66
2022/12/15 10:41:20;;;;;;;9.32;6.32;;;0.30;99.90;;;;;;5137991;27;20071;-66
2022/12/15 10:43:50;;;;;;;10.98;5.57;;;0.10;99.90;;;;;;5119089;27;20054;-66
2022/12/15 10:46:22;;;;;;;11.25;5.97;;;0.10;99.90;;;;;;5137726;27;20413;-66
2022/12/15 10:49:06;;;;;;;7.72;4.90;;;0.00;99.90;;;;;;5137298;27;20471;-66
2022/12/15 10:51:36;;;;;;;7.38;4.13;;;0.10;99.90;;;;;;5138365;27;20348;-66
2022/12/15 10:54:13;;;;;;;7.72;4.25;;;0.60;99.90;;;;;;5119095;27;20039;-66
2022/12/15 10:56:55;;;;;;;8.20;4.78;;;0.40;99.90;;;;;;5136583;27;20047;-66
2022/12/15 10:59:30;;;;;;;10.55;4.15;;;0.80;99.90;;;;;;5137054;27;20055;-67
2022/12/15 11:02:19;;;;;;;16.35;8.95;;;0.50;99.90;;;;;;5137558;27;20043;-65
2022/12/15 11:05:01;;;;;;;10.43;5.10;;;0.40;99.90;;;;;;5136860;27;20123;-65
2022/12/15 11:08:13;;;;;;;8.77;4.07;;;0.30;99.90;;;;;;5136889;27;20066;-65
2022/12/15 11:13:33;;;;;;;8.55;4.35;;;1.90;99.90;;;;;;5137173;27;20398;-66
2022/12/15 11:16:18;;;;;;;10.13;5.82;;;0.40;99.90;;;;;;5136720;27;20051;-65
2022/12/15 11:19:01;;;;;;;9.57;5.65;;;0.20;99.90;;;;;;5119201;27;20394;-65
2022/12/15 11:21:32;;;;;;;8.20;5.78;;;0.60;99.90;;;;;;5136503;27;20065;-66
2022/12/15 11:24:07;;;;;;;10.52;5.75;;;1.30;99.90;;;;;;5137472;27;20087;-66
2022/12/15 11:26:45;;;;;;;11.13;5.03;;;1.20;99.90;;;;;;5136576;27;20047;-66
2022/12/15 11:29:26;;;;;;;10.20;5.53;;;0.50;99.90;;;;;;5136022;27;20100;-66
2022/12/15 11:31:53;;;;;;;7.10;4.43;;;0.50;99.90;;;;;;5118444;27;20051;-66
2022/12/15 11:34:42;;;;;;;7.00;4.57;;;1.40;99.90;;;;;;5136353;27;20050;-65
2022/12/15 11:37:13;;;;;;;7.88;4.00;;;0.90;99.90;;;;;;5135913;27;20075;-65
2022/12/15 11:39:51;;;;;;;8.82;5.03;;;0.50;99.90;;;;;;5117812;27;20047;-66
2022/12/15 11:42:56;;;;;;;6.13;3.70;;;0.60;99.90;;;;;;5136986;27;20043;-66
2022/12/15 11:45:46;;;;;;;9.27;4.50;;;0.60;99.90;;;;;;5136679;27;20055;-66
2022/12/15 11:48:26;;;;;;;8.50;4.13;;;0.90;99.90;;;;;;5136091;27;20086;-66
2022/12/15 11:51:13;;;;;;;10.52;4.72;;;1.20;99.90;;;;;;5136554;27;20100;-66
2022/12/15 11:53:47;;;;;;;7.95;4.22;;;0.80;99.90;;;;;;5136277;27;20047;-65
2022/12/15 11:56:23;;;;;;;7.43;4.65;;;0.80;99.90;;;;;;5136363;27;20050;-66
2022/12/15 11:58:55;;;;;;;6.68;4.88;;;1.00;99.90;;;;;;5118326;27;20050;-66
2022/12/15 12:01:45;;;;;;;12.52;4.65;;;1.70;99.90;;;;;;5117486;27;20047;-66
2022/12/15 12:04:34;;;;;;;7.28;4.55;;;0.70;99.90;;;;;;5135872;27;20051;-66
2022/12/15 12:07:29;;;;;;;8.30;4.35;;;0.90;99.90;;;;;;5118005;27;20039;-67
2022/12/15 12:10:31;;;;;;;6.72;3.75;;;1.00;99.90;;;;;;5117531;27;20058;-66
2022/12/15 12:13:04;;;;;;;7.60;4.78;;;1.20;99.90;;;;;;5117482;27;20505;-67
2022/12/15 12:15:48;;;;;;;7.35;4.32;;;1.40;99.90;;;;;;5135521;27;20043;-67
2022/12/15 12:18:26;;;;;;;7.05;4.30;;;1.00;99.90;;;;;;5136076;27;20075;-66
2022/12/15 12:21:03;;;;;;;8.32;4.00;;;1.30;99.90;;;;;;5118093;27;20405;-67
2022/12/15 12:23:48;;;;;;;7.90;4.03;;;1.10;99.90;;;;;;5135663;27;20055;-66
2022/12/15 12:26:27;;;;;;;8.93;4.70;;;1.00;99.90;;;;;;5100018;27;20042;-66
2022/12/15 12:29:06;;;;;;;5.65;3.95;;;1.30;99.90;;;;;;5135124;27;20104;-66
2022/12/15 12:31:51;;;;;;;7.22;4.32;;;1.10;99.90;;;;;;5117242;27;20394;-67
2022/12/15 12:34:25;;;;;;;6.07;4.68;;;1.30;99.90;;;;;;5135733;27;20119;-67
2022/12/15 12:36:53;;;;;;;7.60;4.68;;;1.00;99.90;;;;;;5134850;27;20051;-66
2022/12/15 12:39:22;;;;;;;6.97;4.53;;;1.30;99.90;;;;;;5135624;27;20051;-67
2022/12/15 12:41:54;;;;;;;8.55;5.35;;;1.90;99.90;;;;;;5135070;27;20126;-66
2022/12/15 12:44:38;;;;;;;7.95;4.35;;;1.10;99.90;;;;;;5135104;27;20050;-66
2022/12/15 12:47:16;;;;;;;7.32;5.10;;;1.30;99.90;;;;;;5135538;27;20050;-66
2022/12/15 12:49:47;;;;;;;9.73;4.70;;;1.20;99.90;;;;;;5134825;27;20055;-67
2022/12/15 12:52:26;;;;;;;7.10;4.50;;;1.80;99.90;;;;;;5116491;27;20035;-67
2022/12/15 12:55:12;;;;;;;7.13;4.03;;;1.50;99.90;;;;;;5134881;27;20520;-67
2022/12/15 12:57:42;;;;;;;10.68;5.13;;;1.30;99.90;;;;;;5135652;27;20118;-66
2022/12/15 13:00:19;;;;;;;10.35;4.28;;;2.10;99.90;;;;;;5099736;28;20122;-67
2022/12/15 13:03:10;;;;;;;8.70;4.28;;;1.20;99.90;;;;;;5116902;27;20471;-66
2022/12/15 13:05:37;;;;;;;8.00;3.90;;;1.40;99.90;;;;;;5116264;27;20047;-66
2022/12/15 13:08:06;;;;;;;7.10;4.15;;;1.50;99.90;;;;;;5134808;27;20047;-67
2022/12/15 13:10:35;;;;;;;7.75;4.25;;;2.20;99.90;;;;;;5099257;28;20483;-67
2022/12/15 13:13:28;;;;;;;7.88;3.75;;;1.50;99.90;;;;;;5093846;28;20097;-67
2022/12/15 13:16:24;;;;;;;7.43;4.63;;;1.30;99.90;;;;;;5093605;28;20048;-67
2022/12/15 13:19:02;;;;;;;8.40;5.05;;;1.30;99.90;;;;;;5087211;28;20098;-67
2022/12/15 13:24:36;;;;;;;7.63;4.47;;;2.80;99.90;;;;;;5093745;28;20464;-67
2022/12/15 13:27:08;;;;;;;7.65;4.75;;;1.30;99.90;;;;;;5093675;28;20055;-67
2022/12/15 13:29:35;;;;;;;8.77;4.28;;;1.70;99.90;;;;;;5093616;28;20055;-67
2022/12/15 13:32:01;;;;;;;13.95;5.50;;;1.80;99.90;;;;;;5094365;28;20062;-67
2022/12/15 13:34:34;;;;;;;7.47;4.25;;;1.50;99.90;;;;;;5094404;28;20052;-67
2022/12/15 13:37:00;;;;;;;6.65;4.25;;;1.60;99.90;;;;;;5092770;28;20056;-67
2022/12/15 13:39:26;;;;;;;8.77;4.15;;;1.70;99.90;;;;;;5093439;28;20452;-70
2022/12/15 13:41:52;;;;;;;9.23;4.32;;;2.30;99.90;;;;;;5093537;28;20093;-73
2022/12/15 13:44:30;;;;;;;8.50;3.85;;;1.70;99.90;;;;;;5093527;28;20052;-69
2022/12/15 13:47:06;;;;;;;8.80;4.50;;;1.60;99.90;;;;;;5093568;28;20382;-70
2022/12/15 13:49:36;;;;;;;7.55;3.85;;;1.70;99.90;;;;;;5093231;28;20488;-70
2022/12/15 13:52:35;;;;;;;7.78;3.85;;;1.80;99.90;;;;;;5092011;28;20048;-68
2022/12/15 13:55:13;;;;;;;8.02;3.63;;;1.50;99.90;;;;;;5085352;28;20048;-68
2022/12/15 13:57:50;;;;;;;8.48;3.92;;;1.60;99.90;;;;;;5093420;28;20044;-67
2022/12/15 14:00:17;;;;;;;9.45;5.00;;;1.40;99.90;;;;;;5093695;28;20044;-68
2022/12/15 14:02:44;;;;;;;8.35;4.40;;;1.40;99.90;;;;;;5092462;28;20040;-68
2022/12/15 14:05:21;;;;;;;8.88;4.70;;;2.30;99.90;;;;;;5093376;28;20059;-67
2022/12/15 14:07:53;;;;;;;7.00;4.68;;;1.50;99.90;;;;;;5093939;28;20044;-67
2022/12/15 14:10:34;;;;;;;7.10;5.00;;;1.90;99.90;;;;;;5091794;28;20143;-67
2022/12/15 14:13:08;;;;;;;10.05;5.28;;;1.30;99.90;;;;;;5094133;28;20396;-67
2022/12/15 14:15:34;;;;;;;9.05;5.32;;;1.30;99.90;;;;;;5094147;28;20055;-67
2022/12/15 14:18:01;;;;;;;9.07;4.85;;;1.80;99.90;;;;;;5092233;28;20143;-67
2022/12/15 14:20:33;;;;;;;13.68;5.03;;;2.70;99.90;;;;;;5093154;28;20392;-67
2022/12/15 14:22:59;;;;;;;9.95;5.85;;;1.20;99.90;;;;;;5093246;28;20055;-67
2022/12/15 14:25:31;;;;;;;10.85;5.40;;;1.20;99.90;;;;;;5093192;28;20040;-67
2022/12/15 14:27:57;;;;;;;10.63;5.55;;;2.10;99.90;;;;;;5092262;28;20056;-67
2022/12/15 14:30:25;;;;;;;9.30;5.47;;;1.70;99.90;;;;;;5093994;28;20055;-67
2022/12/15 14:32:59;;;;;;;9.90;6.10;;;1.30;99.90;;;;;;5096611;28;20048;-68
2022/12/15 14:35:30;;;;;;;10.32;5.90;;;1.20;99.90;;;;;;5096964;28;20384;-68
2022/12/15 14:38:00;;;;;;;7.75;5.75;;;1.30;99.90;;;;;;5097191;28;20044;-68
2022/12/15 14:40:27;;;;;;;11.90;5.65;;;1.30;99.90;;;;;;5096620;28;20051;-68
2022/12/15 14:42:53;;;;;;;9.50;5.93;;;2.00;99.90;;;;;;5096544;28;20121;-68
2022/12/15 14:45:24;;;;;;;10.38;6.00;;;1.60;99.90;;;;;;5097008;28;20101;-68
2022/12/15 14:47:56;;;;;;;9.07;6.18;;;1.20;99.90;;;;;;5095634;28;20089;-68
2022/12/15 14:50:23;;;;;;;11.75;6.38;;;1.10;99.90;;;;;;5096292;28;20044;-68
2022/12/15 14:53:03;;;;;;;10.05;5.75;;;1.10;99.90;;;;;;5096308;28;20113;-68
2022/12/15 14:55:37;;;;;;;16.95;7.47;;;1.30;99.90;;;;;;5096376;28;20044;-69
2022/12/15 14:58:26;;;;;;;13.25;7.15;;;1.00;99.90;;;;;;5095383;28;20044;-68
2022/12/15 15:00:53;;;;;;;9.32;6.38;;;2.00;99.90;;;;;;5094991;28;20044;-69
2022/12/15 15:03:24;;;;;;;9.15;6.72;;;1.50;99.90;;;;;;5094909;28;20087;-69
2022/12/15 15:06:00;;;;;;;9.18;6.60;;;1.30;99.90;;;;;;5097030;28;20143;-69
2022/12/15 15:08:32;;;;;;;13.57;7.25;;;1.10;99.90;;;;;;5096136;28;20136;-69
2022/12/15 15:11:17;;;;;;;9.95;7.30;;;1.30;99.90;;;;;;5125791;27;20054;-69
2022/12/15 15:13:42;;;;;;;11.05;7.32;;;1.20;99.90;;;;;;5137384;27;20382;-69
2022/12/15 15:16:16;;;;;;;9.30;6.78;;;1.00;99.90;;;;;;5136725;27;20039;-69
2022/12/15 15:18:42;;;;;;;10.10;7.35;;;1.50;99.90;;;;;;5101832;27;20427;-68
2022/12/15 15:21:16;;;;;;;13.05;8.10;;;1.20;99.90;;;;;;5136606;27;20130;-68
2022/12/15 15:23:57;;;;;;;12.52;8.07;;;1.20;99.90;;;;;;5136640;27;20129;-69
2022/12/15 15:26:24;;;;;;;12.70;8.30;;;1.20;99.90;;;;;;5137427;27;20047;-68
2022/12/15 15:28:50;;;;;;;11.98;8.48;;;1.70;99.90;;;;;;5136628;27;20043;-69
2022/12/15 15:31:26;;;;;;;15.05;9.85;;;1.60;99.90;;;;;;5137041;27;20103;-68
2022/12/15 15:33:55;;;;;;;14.07;7.97;;;1.50;99.90;;;;;;5118705;27;20043;-69
2022/12/15 15:36:31;;;;;;;14.57;8.73;;;1.20;99.90;;;;;;5118326;27;20058;-68